»·PEaware :: SWA956 KRNO-KSJC

SWA956 :: KRNO-KSJC

FLIGHT INFORMATION

Flight Status: Arrived
Operator:
Southwest Airlines
More flights by this operator :: More flights under this callsign
Pilot: Herb P. (797)
Aircraft: BOEING 737-300
(B733)
More flights by this aircraft type
Origin: KRNO Reno/Tahoe Intl
United States
Destination: KSJC Mineta San Jose Intl
United States
More flights between these airports :: More routes between these airports
Route: ZEFFR6 DARBI STUBL RAZRR4
File this flight plan on PilotEdge
Remarks:
Altitude:
(Current/Filed)
24,000ft
Speed:
(Current/Filed)
470kts
Departed: 04-May-18 11:30 AM
Arrived: 04-May-18 12:15 PM
Distance/Time
Traveled:
163nm/0:45
Distance/Time
To Go:
Arrived

Flight Plot

Page will automatically refresh every two minutes.

Flight plan parsing failed; only flown route is shown


Map Options




Map Legend


Flown Route
Filed Route
Departure Airport
Arrival Airport
Navaid (VOR, NDB)
Fix

Horizontal Profiles

Position Reports

Time Latitude Longitude Heading Altitude Ground
Speed
04-May-18 11:06 39.504415 -119.773757 358 4422ft 0kts
04-May-18 11:07 39.504415 -119.773757 358 4422ft 0kts
04-May-18 11:08 39.504415 -119.773757 358 4422ft 0kts
04-May-18 11:09 39.504415 -119.773757 358 4422ft 0kts
04-May-18 11:10 39.504415 -119.773757 358 4422ft 0kts
04-May-18 11:11 39.504415 -119.773757 358 4422ft 0kts
04-May-18 11:12 39.504415 -119.773757 358 4422ft 0kts
04-May-18 11:13 39.504415 -119.773757 358 4422ft 0kts
04-May-18 11:14 39.504415 -119.773757 358 4422ft 0kts
04-May-18 11:15 39.504415 -119.773757 358 4422ft 0kts
04-May-18 11:16 39.504415 -119.773757 358 4422ft 0kts
04-May-18 11:17 39.504415 -119.773757 358 4422ft 0kts
04-May-18 11:18 39.504415 -119.773757 358 4422ft 0kts
04-May-18 11:19 39.504415 -119.773757 358 4422ft 0kts
04-May-18 11:20 39.504415 -119.773757 358 4422ft 0kts
04-May-18 11:21 39.503889 -119.774079 91 4422ft 0kts
04-May-18 11:23 39.503889 -119.774074 91 4422ft 0kts
04-May-18 11:24 39.503889 -119.774074 91 4422ft 0kts
04-May-18 11:25 39.503741 -119.772748 95 4422ft 21kts
04-May-18 11:26 39.507290 -119.771485 359 4422ft 23kts
04-May-18 11:27 39.513110 -119.771455 1 4422ft 18kts
04-May-18 11:28 39.513737 -119.770550 89 4422ft 0kts
04-May-18 11:29 39.513199 -119.769257 167 4422ft 14kts
04-May-18 11:30 39.487047 -119.769189 178 4907ft 179kts
04-May-18 11:31 39.432836 -119.769239 187 7124ft 213kts
04-May-18 11:32 39.378894 -119.769634 181 8852ft 255kts
04-May-18 11:33 39.312924 -119.769408 179 10502ft 287kts
04-May-18 11:34 39.232761 -119.766480 179 12219ft 305kts
04-May-18 11:35 39.142860 -119.763129 179 14331ft 335kts
04-May-18 11:36 39.049029 -119.759582 179 16759ft 345kts
04-May-18 11:37 38.952120 -119.755752 180 18856ft 357kts
04-May-18 11:38 38.862255 -119.752443 179 20524ft 368kts
04-May-18 11:39 38.790297 -119.749823 180 21774ft 375kts
04-May-18 11:40 38.685256 -119.745939 180 23379ft 385kts
04-May-18 11:41 38.594237 -119.742597 180 24389ft 394kts
04-May-18 11:42 38.480520 -119.738412 180 24386ft 430kts
04-May-18 11:43 38.363649 -119.733990 180 24415ft 451kts
04-May-18 11:44 38.239959 -119.743288 191 24429ft 449kts
04-May-18 11:45 38.117880 -119.768503 190 24430ft 449kts
04-May-18 11:46 37.999424 -119.792501 190 24479ft 440kts
04-May-18 11:47 37.876992 -119.817245 190 24280ft 447kts
04-May-18 11:48 37.755359 -119.841718 190 24284ft 449kts
04-May-18 11:49 37.633251 -119.866203 190 24280ft 449kts
04-May-18 11:50 37.511055 -119.890623 190 24278ft 449kts
04-May-18 11:51 37.390657 -119.914560 190 24299ft 440kts
04-May-18 11:52 37.280573 -119.936890 196 24275ft 390kts
04-May-18 11:53 37.218526 -120.024628 260 24291ft 387kts
04-May-18 11:54 37.206217 -120.150236 261 24274ft 387kts
04-May-18 11:55 37.192724 -120.280293 261 24186ft 383kts
04-May-18 11:56 37.178768 -120.408250 260 22245ft 371kts
04-May-18 11:57 37.164683 -120.534260 260 21087ft 363kts
04-May-18 11:58 37.150838 -120.657997 260 20097ft 355kts
04-May-18 11:59 37.136868 -120.781113 260 19069ft 368kts
04-May-18 12:00 37.122874 -120.906674 261 16173ft 365kts
04-May-18 12:01 37.109206 -121.029310 260 13511ft 349kts
04-May-18 12:02 37.098900 -121.127835 270 11429ft 338kts
04-May-18 12:03 37.110111 -121.227693 276 11219ft 258kts
04-May-18 12:04 37.120811 -121.320881 276 10975ft 274kts
04-May-18 12:05 37.132031 -121.419926 277 8407ft 282kts
04-May-18 12:06 37.142162 -121.511406 278 7061ft 262kts
04-May-18 12:07 37.151893 -121.599127 278 5635ft 259kts
04-May-18 12:08 37.160880 -121.681114 278 4155ft 242kts
04-May-18 12:09 37.188446 -121.741790 318 4059ft 200kts
04-May-18 12:10 37.228245 -121.783184 320 3468ft 189kts
04-May-18 12:11 37.265313 -121.823193 319 2482ft 176kts
04-May-18 12:12 37.295936 -121.856787 319 1647ft 143kts
04-May-18 12:13 37.324717 -121.888295 319 912ft 142kts
04-May-18 12:14 37.352394 -121.918605 319 204ft 134kts
04-May-18 12:15 37.365477 -121.931096 42 56ft 3kts
04-May-18 12:16 37.367554 -121.928290 49 56ft 0kts
04-May-18 12:17 37.367554 -121.928290 49 56ft 0kts
04-May-18 12:18 37.367554 -121.928290 49 56ft 0kts
04-May-18 12:19 37.367554 -121.928290 49 56ft 0kts
04-May-18 12:20 37.367554 -121.928290 49 56ft 0kts

Navigation Log

Ident Type
Flight plan parsing failed, navigation log unavailable